Terminal Aerodrome Forecast
Issued by NWS

Home | Current Version | Previous Version | Text Only | Print | Product List | Glossary On
Versions: 1 2 3 4 5 6 7 8 9 10 11 12 13 14 15 16 17
000
FTUS41 KPBZ 141400 AAB
TAFHLG
TAF AMD
KHLG 141451Z 1415/1512 22005KT 5SM BR VCSH SCT008 OVC015
      TEMPO 1415/1417 1SM SHRA BKN008
     FM141700 23007KT P6SM VCSH BKN030
     FM150500 23005KT P6SM VCSH BKN005=

USA.gov is the U.S. government's official web portal to all federal, state and local government web resources and services.